sensor_id;sensor_type;location;lat;lon;timestamp;P1;durP1;ratioP1;P2;durP2;ratioP2
22939;SDS011;11636;52.086;5.090;2022-07-23T00:00:46;2.35;;;1.17;;
22939;SDS011;11636;52.086;5.090;2022-07-23T00:03:40;4.05;;;1.40;;
22939;SDS011;11636;52.086;5.090;2022-07-23T00:06:34;2.58;;;1.20;;
22939;SDS011;11636;52.086;5.090;2022-07-23T00:09:28;2.22;;;1.30;;
22939;SDS011;11636;52.086;5.090;2022-07-23T00:12:24;2.20;;;1.10;;
22939;SDS011;11636;52.086;5.090;2022-07-23T00:15:11;2.25;;;1.23;;
22939;SDS011;11636;52.086;5.090;2022-07-23T00:18:05;1.98;;;1.10;;
22939;SDS011;11636;52.086;5.090;2022-07-23T00:20:52;1.88;;;1.00;;
22939;SDS011;11636;52.086;5.090;2022-07-23T00:23:46;2.30;;;1.20;;
22939;SDS011;11636;52.086;5.090;2022-07-23T00:26:33;2.42;;;1.10;;
22939;SDS011;11636;52.086;5.090;2022-07-23T00:29:27;2.63;;;1.40;;
22939;SDS011;11636;52.086;5.090;2022-07-23T00:32:21;3.05;;;1.30;;
22939;SDS011;11636;52.086;5.090;2022-07-23T00:35:36;2.80;;;1.20;;
22939;SDS011;11636;52.086;5.090;2022-07-23T00:38:33;2.28;;;1.30;;
22939;SDS011;11636;52.086;5.090;2022-07-23T00:41:27;2.75;;;1.30;;
22939;SDS011;11636;52.086;5.090;2022-07-23T00:44:15;2.28;;;1.00;;
22939;SDS011;11636;52.086;5.090;2022-07-23T00:47:09;2.30;;;1.20;;
22939;SDS011;11636;52.086;5.090;2022-07-23T00:50:03;2.03;;;1.00;;
22939;SDS011;11636;52.086;5.090;2022-07-23T00:52:52;2.97;;;1.15;;
22939;SDS011;11636;52.086;5.090;2022-07-23T00:55:46;2.92;;;1.10;;
22939;SDS011;11636;52.086;5.090;2022-07-23T00:58:35;1.67;;;0.98;;
22939;SDS011;11636;52.086;5.090;2022-07-23T01:01:29;2.30;;;1.00;;
22939;SDS011;11636;52.086;5.090;2022-07-23T01:04:16;2.72;;;1.10;;
22939;SDS011;11636;52.086;5.090;2022-07-23T01:07:10;2.08;;;1.20;;
22939;SDS011;11636;52.086;5.090;2022-07-23T01:10:04;2.35;;;1.17;;
22939;SDS011;11636;52.086;5.090;2022-07-23T01:13:19;2.42;;;1.25;;
22939;SDS011;11636;52.086;5.090;2022-07-23T01:16:13;2.15;;;1.10;;
22939;SDS011;11636;52.086;5.090;2022-07-23T01:19:00;1.73;;;1.08;;
22939;SDS011;11636;52.086;5.090;2022-07-23T01:21:54;2.47;;;1.15;;
22939;SDS011;11636;52.086;5.090;2022-07-23T01:24:45;2.17;;;1.40;;
22939;SDS011;11636;52.086;5.090;2022-07-23T01:27:39;2.85;;;1.33;;
22939;SDS011;11636;52.086;5.090;2022-07-23T01:30:33;3.05;;;1.30;;
22939;SDS011;11636;52.086;5.090;2022-07-23T01:33:20;1.83;;;1.02;;
22939;SDS011;11636;52.086;5.090;2022-07-23T01:36:14;3.35;;;1.38;;
22939;SDS011;11636;52.086;5.090;2022-07-23T01:39:08;2.90;;;1.38;;
22939;SDS011;11636;52.086;5.090;2022-07-23T01:41:55;3.28;;;1.60;;
22939;SDS011;11636;52.086;5.090;2022-07-23T01:44:49;2.90;;;1.30;;
22939;SDS011;11636;52.086;5.090;2022-07-23T01:47:37;2.13;;;1.35;;
22939;SDS011;11636;52.086;5.090;2022-07-23T01:50:30;2.47;;;1.42;;
22939;SDS011;11636;52.086;5.090;2022-07-23T01:53:17;2.35;;;1.30;;
22939;SDS011;11636;52.086;5.090;2022-07-23T01:56:11;3.45;;;1.73;;
22939;SDS011;11636;52.086;5.090;2022-07-23T01:59:13;2.07;;;1.30;;
22939;SDS011;11636;52.086;5.090;2022-07-23T02:02:07;2.65;;;1.48;;
22939;SDS011;11636;52.086;5.090;2022-07-23T02:04:54;4.18;;;1.77;;
22939;SDS011;11636;52.086;5.090;2022-07-23T02:07:48;2.58;;;1.38;;
22939;SDS011;11636;52.086;5.090;2022-07-23T02:10:35;2.67;;;1.52;;
22939;SDS011;11636;52.086;5.090;2022-07-23T02:13:29;2.65;;;1.60;;
22939;SDS011;11636;52.086;5.090;2022-07-23T02:16:23;3.97;;;1.98;;
22939;SDS011;11636;52.086;5.090;2022-07-23T02:19:10;3.03;;;1.90;;
22939;SDS011;11636;52.086;5.090;2022-07-23T02:22:04;2.90;;;1.73;;
22939;SDS011;11636;52.086;5.090;2022-07-23T02:24:58;3.42;;;1.90;;
22939;SDS011;11636;52.086;5.090;2022-07-23T02:27:52;3.33;;;1.98;;
22939;SDS011;11636;52.086;5.090;2022-07-23T02:30:46;2.80;;;1.75;;
22939;SDS011;11636;52.086;5.090;2022-07-23T02:33:40;2.55;;;1.75;;
22939;SDS011;11636;52.086;5.090;2022-07-23T02:36:27;2.60;;;1.58;;
22939;SDS011;11636;52.086;5.090;2022-07-23T02:39:21;3.92;;;1.85;;
22939;SDS011;11636;52.086;5.090;2022-07-23T02:42:08;3.20;;;1.88;;
22939;SDS011;11636;52.086;5.090;2022-07-23T02:45:02;3.00;;;1.70;;
22939;SDS011;11636;52.086;5.090;2022-07-23T02:47:56;2.85;;;1.83;;
22939;SDS011;11636;52.086;5.090;2022-07-23T02:50:50;2.97;;;1.90;;
22939;SDS011;11636;52.086;5.090;2022-07-23T02:53:45;3.40;;;1.90;;
22939;SDS011;11636;52.086;5.090;2022-07-23T02:56:32;4.38;;;2.00;;
22939;SDS011;11636;52.086;5.090;2022-07-23T02:59:26;3.25;;;2.08;;
22939;SDS011;11636;52.086;5.090;2022-07-23T03:02:13;2.90;;;1.75;;
22939;SDS011;11636;52.086;5.090;2022-07-23T03:05:07;3.25;;;1.90;;
22939;SDS011;11636;52.086;5.090;2022-07-23T03:08:01;2.88;;;1.70;;
22939;SDS011;11636;52.086;5.090;2022-07-23T03:11:02;2.75;;;1.42;;
22939;SDS011;11636;52.086;5.090;2022-07-23T03:13:55;2.35;;;1.55;;
22939;SDS011;11636;52.086;5.090;2022-07-23T03:16:49;2.70;;;1.80;;
22939;SDS011;11636;52.086;5.090;2022-07-23T03:19:36;4.47;;;1.80;;
22939;SDS011;11636;52.086;5.090;2022-07-23T03:22:31;3.28;;;1.80;;
22939;SDS011;11636;52.086;5.090;2022-07-23T03:25:25;2.83;;;1.65;;
22939;SDS011;11636;52.086;5.090;2022-07-23T03:28:19;3.05;;;1.70;;
22939;SDS011;11636;52.086;5.090;2022-07-23T03:31:06;2.88;;;1.65;;
22939;SDS011;11636;52.086;5.090;2022-07-23T03:34:00;3.10;;;1.52;;
22939;SDS011;11636;52.086;5.090;2022-07-23T03:36:48;2.83;;;1.70;;
22939;SDS011;11636;52.086;5.090;2022-07-23T03:39:42;2.75;;;1.60;;
22939;SDS011;11636;52.086;5.090;2022-07-23T03:42:29;2.70;;;1.67;;
22939;SDS011;11636;52.086;5.090;2022-07-23T03:45:24;2.38;;;1.30;;
22939;SDS011;11636;52.086;5.090;2022-07-23T03:48:11;2.47;;;1.45;;
22939;SDS011;11636;52.086;5.090;2022-07-23T03:51:04;3.13;;;1.50;;
22939;SDS011;11636;52.086;5.090;2022-07-23T03:53:52;2.58;;;1.42;;
22939;SDS011;11636;52.086;5.090;2022-07-23T03:56:45;3.00;;;1.48;;
22939;SDS011;11636;52.086;5.090;2022-07-23T03:59:39;2.50;;;1.40;;
22939;SDS011;11636;52.086;5.090;2022-07-23T04:02:26;2.67;;;1.70;;
22939;SDS011;11636;52.086;5.090;2022-07-23T04:05:20;2.55;;;1.50;;
22939;SDS011;11636;52.086;5.090;2022-07-23T04:08:14;2.83;;;1.65;;
22939;SDS011;11636;52.086;5.090;2022-07-23T04:11:01;2.63;;;1.80;;
22939;SDS011;11636;52.086;5.090;2022-07-23T04:13:55;3.22;;;1.83;;
22939;SDS011;11636;52.086;5.090;2022-07-23T04:16:49;3.25;;;1.80;;
22939;SDS011;11636;52.086;5.090;2022-07-23T04:19:43;2.70;;;1.50;;
22939;SDS011;11636;52.086;5.090;2022-07-23T04:22:30;2.40;;;1.52;;
22939;SDS011;11636;52.086;5.090;2022-07-23T04:25:25;3.40;;;1.70;;
22939;SDS011;11636;52.086;5.090;2022-07-23T04:28:12;2.40;;;1.60;;
22939;SDS011;11636;52.086;5.090;2022-07-23T04:31:05;2.85;;;1.63;;
22939;SDS011;11636;52.086;5.090;2022-07-23T04:33:53;3.53;;;1.70;;
22939;SDS011;11636;52.086;5.090;2022-07-23T04:36:46;2.40;;;1.50;;
22939;SDS011;11636;52.086;5.090;2022-07-23T04:39:40;3.13;;;1.90;;
22939;SDS011;11636;52.086;5.090;2022-07-23T04:42:34;2.75;;;1.52;;
22939;SDS011;11636;52.086;5.090;2022-07-23T04:45:22;2.40;;;1.50;;
22939;SDS011;11636;52.086;5.090;2022-07-23T04:48:18;2.67;;;1.50;;
22939;SDS011;11636;52.086;5.090;2022-07-23T04:51:06;3.13;;;1.48;;
22939;SDS011;11636;52.086;5.090;2022-07-23T04:53:59;2.03;;;1.27;;
22939;SDS011;11636;52.086;5.090;2022-07-23T04:56:53;3.67;;;1.40;;
22939;SDS011;11636;52.086;5.090;2022-07-23T04:59:40;2.38;;;1.20;;
22939;SDS011;11636;52.086;5.090;2022-07-23T05:02:34;2.03;;;1.13;;
22939;SDS011;11636;52.086;5.090;2022-07-23T05:05:22;1.90;;;1.10;;
22939;SDS011;11636;52.086;5.090;2022-07-23T05:08:15;3.08;;;1.42;;
22939;SDS011;11636;52.086;5.090;2022-07-23T05:11:02;3.83;;;1.80;;
22939;SDS011;11636;52.086;5.090;2022-07-23T05:13:56;3.35;;;1.85;;
22939;SDS011;11636;52.086;5.090;2022-07-23T05:16:50;2.67;;;1.73;;
22939;SDS011;11636;52.086;5.090;2022-07-23T05:19:38;2.85;;;1.30;;
22939;SDS011;11636;52.086;5.090;2022-07-23T05:22:31;2.20;;;1.40;;
22939;SDS011;11636;52.086;5.090;2022-07-23T05:25:19;1.80;;;1.00;;
22939;SDS011;11636;52.086;5.090;2022-07-23T05:28:12;2.55;;;1.33;;
22939;SDS011;11636;52.086;5.090;2022-07-23T05:31:00;2.33;;;1.25;;
22939;SDS011;11636;52.086;5.090;2022-07-23T05:33:54;2.13;;;1.17;;
22939;SDS011;11636;52.086;5.090;2022-07-23T05:36:41;4.78;;;2.03;;
22939;SDS011;11636;52.086;5.090;2022-07-23T05:39:34;5.13;;;1.80;;
22939;SDS011;11636;52.086;5.090;2022-07-23T05:42:28;3.55;;;1.40;;
22939;SDS011;11636;52.086;5.090;2022-07-23T05:45:16;3.17;;;1.30;;
22939;SDS011;11636;52.086;5.090;2022-07-23T05:48:09;4.60;;;1.20;;
22939;SDS011;11636;52.086;5.090;2022-07-23T05:50:57;5.10;;;1.85;;
22939;SDS011;11636;52.086;5.090;2022-07-23T05:53:50;3.10;;;1.50;;
22939;SDS011;11636;52.086;5.090;2022-07-23T05:56:45;3.58;;;1.42;;
22939;SDS011;11636;52.086;5.090;2022-07-23T05:59:38;1.90;;;0.90;;
22939;SDS011;11636;52.086;5.090;2022-07-23T06:02:32;1.70;;;0.90;;
22939;SDS011;11636;52.086;5.090;2022-07-23T06:05:20;1.40;;;0.70;;
22939;SDS011;11636;52.086;5.090;2022-07-23T06:08:13;1.92;;;0.80;;
22939;SDS011;11636;52.086;5.090;2022-07-23T06:11:01;1.52;;;0.90;;
22939;SDS011;11636;52.086;5.090;2022-07-23T06:13:54;1.55;;;0.70;;
22939;SDS011;11636;52.086;5.090;2022-07-23T06:16:48;1.90;;;0.98;;
22939;SDS011;11636;52.086;5.090;2022-07-23T06:19:42;1.75;;;0.80;;
22939;SDS011;11636;52.086;5.090;2022-07-23T06:22:38;1.48;;;0.73;;
22939;SDS011;11636;52.086;5.090;2022-07-23T06:25:31;1.73;;;0.80;;
22939;SDS011;11636;52.086;5.090;2022-07-23T06:28:19;1.75;;;0.90;;
22939;SDS011;11636;52.086;5.090;2022-07-23T06:31:12;2.53;;;0.90;;
22939;SDS011;11636;52.086;5.090;2022-07-23T06:34:07;2.45;;;1.23;;
22939;SDS011;11636;52.086;5.090;2022-07-23T06:36:54;2.75;;;1.20;;
22939;SDS011;11636;52.086;5.090;2022-07-23T06:39:48;2.33;;;1.00;;
22939;SDS011;11636;52.086;5.090;2022-07-23T06:42:42;2.35;;;0.98;;
22939;SDS011;11636;52.086;5.090;2022-07-23T06:45:36;2.83;;;1.40;;
22939;SDS011;11636;52.086;5.090;2022-07-23T06:48:30;2.30;;;1.00;;
22939;SDS011;11636;52.086;5.090;2022-07-23T06:51:24;1.73;;;0.70;;
22939;SDS011;11636;52.086;5.090;2022-07-23T06:54:18;1.70;;;0.80;;
22939;SDS011;11636;52.086;5.090;2022-07-23T06:57:05;2.45;;;1.00;;
22939;SDS011;11636;52.086;5.090;2022-07-23T06:59:59;3.25;;;1.10;;
22939;SDS011;11636;52.086;5.090;2022-07-23T07:02:46;3.38;;;1.33;;
22939;SDS011;11636;52.086;5.090;2022-07-23T07:05:40;2.33;;;1.00;;
22939;SDS011;11636;52.086;5.090;2022-07-23T07:08:27;1.50;;;0.73;;
22939;SDS011;11636;52.086;5.090;2022-07-23T07:11:20;2.60;;;1.00;;
22939;SDS011;11636;52.086;5.090;2022-07-23T07:14:15;1.23;;;0.63;;
22939;SDS011;11636;52.086;5.090;2022-07-23T07:17:02;1.20;;;0.70;;
22939;SDS011;11636;52.086;5.090;2022-07-23T07:19:56;2.40;;;0.80;;
22939;SDS011;11636;52.086;5.090;2022-07-23T07:22:50;2.88;;;0.73;;
22939;SDS011;11636;52.086;5.090;2022-07-23T07:25:44;2.13;;;0.90;;
22939;SDS011;11636;52.086;5.090;2022-07-23T07:28:38;2.47;;;0.90;;
22939;SDS011;11636;52.086;5.090;2022-07-23T07:31:32;1.67;;;0.80;;
22939;SDS011;11636;52.086;5.090;2022-07-23T07:34:26;3.17;;;1.00;;
22939;SDS011;11636;52.086;5.090;2022-07-23T07:37:20;1.98;;;0.85;;
22939;SDS011;11636;52.086;5.090;2022-07-23T07:40:07;3.20;;;1.35;;
22939;SDS011;11636;52.086;5.090;2022-07-23T07:43:01;2.80;;;1.20;;
22939;SDS011;11636;52.086;5.090;2022-07-23T07:45:49;2.53;;;1.05;;
22939;SDS011;11636;52.086;5.090;2022-07-23T07:48:43;2.72;;;1.00;;
22939;SDS011;11636;52.086;5.090;2022-07-23T07:51:43;3.72;;;1.55;;
22939;SDS011;11636;52.086;5.090;2022-07-23T07:54:31;3.33;;;1.10;;
22939;SDS011;11636;52.086;5.090;2022-07-23T07:57:25;2.53;;;1.10;;
22939;SDS011;11636;52.086;5.090;2022-07-23T08:00:12;2.20;;;1.13;;
22939;SDS011;11636;52.086;5.090;2022-07-23T08:03:06;3.03;;;0.90;;
22939;SDS011;11636;52.086;5.090;2022-07-23T08:05:53;3.08;;;1.10;;
22939;SDS011;11636;52.086;5.090;2022-07-23T08:08:47;4.40;;;1.40;;
22939;SDS011;11636;52.086;5.090;2022-07-23T08:11:34;3.17;;;1.40;;
22939;SDS011;11636;52.086;5.090;2022-07-23T08:14:29;4.68;;;1.08;;
22939;SDS011;11636;52.086;5.090;2022-07-23T08:17:16;2.78;;;1.00;;
22939;SDS011;11636;52.086;5.090;2022-07-23T08:20:11;3.15;;;1.20;;
22939;SDS011;11636;52.086;5.090;2022-07-23T08:23:02;1.75;;;0.80;;
22939;SDS011;11636;52.086;5.090;2022-07-23T08:25:57;3.63;;;1.08;;
22939;SDS011;11636;52.086;5.090;2022-07-23T08:28:52;1.90;;;0.80;;
22939;SDS011;11636;52.086;5.090;2022-07-23T08:31:39;3.00;;;1.10;;
22939;SDS011;11636;52.086;5.090;2022-07-23T08:34:33;1.88;;;0.88;;
22939;SDS011;11636;52.086;5.090;2022-07-23T08:37:30;2.10;;;0.85;;
22939;SDS011;11636;52.086;5.090;2022-07-23T08:40:25;1.33;;;0.60;;
22939;SDS011;11636;52.086;5.090;2022-07-23T08:43:28;1.75;;;0.80;;
22939;SDS011;11636;52.086;5.090;2022-07-23T08:46:16;1.60;;;0.60;;
22939;SDS011;11636;52.086;5.090;2022-07-23T08:49:12;1.83;;;0.85;;
22939;SDS011;11636;52.086;5.090;2022-07-23T08:52:00;1.83;;;0.60;;
22939;SDS011;11636;52.086;5.090;2022-07-23T08:55:01;1.70;;;0.73;;
22939;SDS011;11636;52.086;5.090;2022-07-23T08:57:55;1.45;;;0.73;;
22939;SDS011;11636;52.086;5.090;2022-07-23T09:00:49;2.40;;;0.80;;
22939;SDS011;11636;52.086;5.090;2022-07-23T09:03:43;1.58;;;0.60;;
22939;SDS011;11636;52.086;5.090;2022-07-23T09:06:31;2.15;;;0.70;;
22939;SDS011;11636;52.086;5.090;2022-07-23T09:09:25;2.00;;;0.80;;
22939;SDS011;11636;52.086;5.090;2022-07-23T09:12:16;2.55;;;0.90;;
22939;SDS011;11636;52.086;5.090;2022-07-23T09:15:10;1.52;;;0.60;;
22939;SDS011;11636;52.086;5.090;2022-07-23T09:18:04;2.55;;;0.70;;
22939;SDS011;11636;52.086;5.090;2022-07-23T09:20:52;2.83;;;0.90;;
22939;SDS011;11636;52.086;5.090;2022-07-23T09:24:03;4.10;;;1.15;;
22939;SDS011;11636;52.086;5.090;2022-07-23T09:26:53;5.23;;;1.10;;
22939;SDS011;11636;52.086;5.090;2022-07-23T09:29:55;2.38;;;0.93;;
22939;SDS011;11636;52.086;5.090;2022-07-23T09:33:05;2.83;;;0.90;;
22939;SDS011;11636;52.086;5.090;2022-07-23T09:36:00;3.15;;;1.00;;
22939;SDS011;11636;52.086;5.090;2022-07-23T09:38:54;3.15;;;1.15;;
22939;SDS011;11636;52.086;5.090;2022-07-23T09:41:42;4.00;;;1.42;;
22939;SDS011;11636;52.086;5.090;2022-07-23T09:44:40;2.28;;;0.88;;
22939;SDS011;11636;52.086;5.090;2022-07-23T09:47:31;2.10;;;0.88;;
22939;SDS011;11636;52.086;5.090;2022-07-23T09:50:25;2.20;;;0.88;;
22939;SDS011;11636;52.086;5.090;2022-07-23T09:53:25;2.67;;;1.00;;
22939;SDS011;11636;52.086;5.090;2022-07-23T09:56:13;3.22;;;0.88;;
22939;SDS011;11636;52.086;5.090;2022-07-23T09:59:13;3.03;;;0.90;;
22939;SDS011;11636;52.086;5.090;2022-07-23T10:02:04;1.58;;;0.60;;
22939;SDS011;11636;52.086;5.090;2022-07-23T10:04:59;3.10;;;1.20;;
22939;SDS011;11636;52.086;5.090;2022-07-23T10:07:49;4.10;;;1.10;;
22939;SDS011;11636;52.086;5.090;2022-07-23T10:10:45;2.20;;;1.20;;
22939;SDS011;11636;52.086;5.090;2022-07-23T10:13:33;3.72;;;1.10;;
22939;SDS011;11636;52.086;5.090;2022-07-23T10:16:27;2.83;;;1.20;;
22939;SDS011;11636;52.086;5.090;2022-07-23T10:19:15;4.40;;;1.23;;
22939;SDS011;11636;52.086;5.090;2022-07-23T10:22:14;4.05;;;1.48;;
22939;SDS011;11636;52.086;5.090;2022-07-23T10:38:31;4.40;;;2.03;;
22939;SDS011;11636;52.086;5.090;2022-07-23T10:41:39;3.25;;;1.50;;
22939;SDS011;11636;52.086;5.090;2022-07-23T10:44:33;4.65;;;1.77;;
22939;SDS011;11636;52.086;5.090;2022-07-23T10:47:32;2.83;;;1.45;;
22939;SDS011;11636;52.086;5.090;2022-07-23T10:50:35;2.08;;;1.08;;
22939;SDS011;11636;52.086;5.090;2022-07-23T10:53:29;1.83;;;1.00;;
22939;SDS011;11636;52.086;5.090;2022-07-23T10:56:50;2.63;;;1.08;;
22939;SDS011;11636;52.086;5.090;2022-07-23T11:03:01;1.92;;;0.70;;
22939;SDS011;11636;52.086;5.090;2022-07-23T11:05:59;3.47;;;1.23;;
22939;SDS011;11636;52.086;5.090;2022-07-23T11:08:46;3.17;;;1.00;;
22939;SDS011;11636;52.086;5.090;2022-07-23T11:15:03;2.67;;;1.30;;
22939;SDS011;11636;52.086;5.090;2022-07-23T11:18:02;3.42;;;1.00;;
22939;SDS011;11636;52.086;5.090;2022-07-23T11:20:56;3.03;;;1.05;;
22939;SDS011;11636;52.086;5.090;2022-07-23T11:27:02;3.33;;;1.65;;
22939;SDS011;11636;52.086;5.090;2022-07-23T11:29:56;3.85;;;1.90;;
22939;SDS011;11636;52.086;5.090;2022-07-23T11:32:43;5.15;;;1.40;;
22939;SDS011;11636;52.086;5.090;2022-07-23T11:35:38;2.33;;;0.90;;
22939;SDS011;11636;52.086;5.090;2022-07-23T11:38:37;3.05;;;1.40;;
22939;SDS011;11636;52.086;5.090;2022-07-23T11:41:26;4.68;;;1.42;;
22939;SDS011;11636;52.086;5.090;2022-07-23T11:44:24;3.75;;;1.48;;
22939;SDS011;11636;52.086;5.090;2022-07-23T11:47:25;4.47;;;1.50;;
22939;SDS011;11636;52.086;5.090;2022-07-23T11:50:13;3.72;;;1.52;;
22939;SDS011;11636;52.086;5.090;2022-07-23T11:53:07;2.45;;;1.02;;
22939;SDS011;11636;52.086;5.090;2022-07-23T11:56:03;1.98;;;1.15;;
22939;SDS011;11636;52.086;5.090;2022-07-23T11:58:58;3.30;;;1.42;;
22939;SDS011;11636;52.086;5.090;2022-07-23T12:01:59;2.83;;;1.20;;
22939;SDS011;11636;52.086;5.090;2022-07-23T12:04:54;4.07;;;1.30;;
22939;SDS011;11636;52.086;5.090;2022-07-23T12:07:43;3.58;;;1.40;;
22939;SDS011;11636;52.086;5.090;2022-07-23T12:10:38;2.92;;;1.70;;
22939;SDS011;11636;52.086;5.090;2022-07-23T12:13:36;3.17;;;1.20;;
22939;SDS011;11636;52.086;5.090;2022-07-23T12:16:30;2.75;;;1.10;;
22939;SDS011;11636;52.086;5.090;2022-07-23T12:19:17;3.45;;;1.50;;
22939;SDS011;11636;52.086;5.090;2022-07-23T12:22:11;3.88;;;1.63;;
22939;SDS011;11636;52.086;5.090;2022-07-23T12:25:08;3.05;;;1.25;;
22939;SDS011;11636;52.086;5.090;2022-07-23T12:31:13;4.07;;;1.70;;
22939;SDS011;11636;52.086;5.090;2022-07-23T12:34:14;3.22;;;1.50;;
22939;SDS011;11636;52.086;5.090;2022-07-23T12:37:07;3.17;;;1.50;;
22939;SDS011;11636;52.086;5.090;2022-07-23T12:43:22;3.70;;;1.70;;
22939;SDS011;11636;52.086;5.090;2022-07-23T12:49:09;3.47;;;1.42;;
22939;SDS011;11636;52.086;5.090;2022-07-23T12:51:57;4.20;;;1.67;;
22939;SDS011;11636;52.086;5.090;2022-07-23T12:54:56;4.97;;;1.83;;
22939;SDS011;11636;52.086;5.090;2022-07-23T12:57:45;5.45;;;2.00;;
22939;SDS011;11636;52.086;5.090;2022-07-23T13:00:59;4.43;;;1.52;;
22939;SDS011;11636;52.086;5.090;2022-07-23T13:04:10;3.38;;;1.70;;
22939;SDS011;11636;52.086;5.090;2022-07-23T13:07:08;2.72;;;1.70;;
22939;SDS011;11636;52.086;5.090;2022-07-23T13:10:02;4.63;;;2.00;;
22939;SDS011;11636;52.086;5.090;2022-07-23T13:12:50;3.33;;;1.83;;
22939;SDS011;11636;52.086;5.090;2022-07-23T13:15:43;5.35;;;2.00;;
22939;SDS011;11636;52.086;5.090;2022-07-23T13:18:31;3.03;;;1.60;;
22939;SDS011;11636;52.086;5.090;2022-07-23T13:21:25;2.65;;;1.65;;
22939;SDS011;11636;52.086;5.090;2022-07-23T13:24:21;2.60;;;1.45;;
22939;SDS011;11636;52.086;5.090;2022-07-23T13:27:08;2.90;;;1.50;;
22939;SDS011;11636;52.086;5.090;2022-07-23T13:30:02;2.90;;;1.80;;
22939;SDS011;11636;52.086;5.090;2022-07-23T13:32:50;2.55;;;1.55;;
22939;SDS011;11636;52.086;5.090;2022-07-23T13:35:46;2.83;;;1.60;;
22939;SDS011;11636;52.086;5.090;2022-07-23T13:38:41;2.85;;;1.70;;
22939;SDS011;11636;52.086;5.090;2022-07-23T13:41:36;3.78;;;1.63;;
22939;SDS011;11636;52.086;5.090;2022-07-23T13:44:36;2.85;;;1.67;;
22939;SDS011;11636;52.086;5.090;2022-07-23T13:47:23;5.28;;;2.22;;
22939;SDS011;11636;52.086;5.090;2022-07-23T13:50:17;2.90;;;1.70;;
22939;SDS011;11636;52.086;5.090;2022-07-23T13:53:09;3.25;;;1.83;;
22939;SDS011;11636;52.086;5.090;2022-07-23T13:56:04;3.55;;;1.50;;
22939;SDS011;11636;52.086;5.090;2022-07-23T13:58:58;3.92;;;2.17;;
22939;SDS011;11636;52.086;5.090;2022-07-23T14:01:53;4.82;;;2.50;;
22939;SDS011;11636;52.086;5.090;2022-07-23T14:05:01;3.40;;;1.75;;
22939;SDS011;11636;52.086;5.090;2022-07-23T14:07:56;2.22;;;1.35;;
22939;SDS011;11636;52.086;5.090;2022-07-23T14:10:44;2.13;;;1.30;;
22939;SDS011;11636;52.086;5.090;2022-07-23T14:13:37;2.50;;;1.48;;
22939;SDS011;11636;52.086;5.090;2022-07-23T14:16:32;2.78;;;1.50;;
22939;SDS011;11636;52.086;5.090;2022-07-23T14:19:26;2.28;;;1.30;;
22939;SDS011;11636;52.086;5.090;2022-07-23T14:22:16;2.80;;;1.60;;
22939;SDS011;11636;52.086;5.090;2022-07-23T14:25:10;2.20;;;1.42;;
22939;SDS011;11636;52.086;5.090;2022-07-23T14:27:58;3.83;;;2.20;;
22939;SDS011;11636;52.086;5.090;2022-07-23T14:30:51;3.80;;;1.52;;
22939;SDS011;11636;52.086;5.090;2022-07-23T14:33:48;3.47;;;1.70;;
22939;SDS011;11636;52.086;5.090;2022-07-23T14:36:35;4.05;;;1.90;;
22939;SDS011;11636;52.086;5.090;2022-07-23T14:39:29;2.90;;;1.60;;
22939;SDS011;11636;52.086;5.090;2022-07-23T14:42:23;5.43;;;2.22;;
22939;SDS011;11636;52.086;5.090;2022-07-23T14:45:17;4.38;;;2.00;;
22939;SDS011;11636;52.086;5.090;2022-07-23T14:48:05;3.42;;;1.88;;
22939;SDS011;11636;52.086;5.090;2022-07-23T14:51:00;3.08;;;1.77;;
22939;SDS011;11636;52.086;5.090;2022-07-23T14:53:48;3.60;;;1.73;;
22939;SDS011;11636;52.086;5.090;2022-07-23T14:56:48;3.72;;;1.90;;
22939;SDS011;11636;52.086;5.090;2022-07-23T14:59:41;5.03;;;1.77;;
22939;SDS011;11636;52.086;5.090;2022-07-23T15:02:29;5.05;;;3.85;;
22939;SDS011;11636;52.086;5.090;2022-07-23T15:05:22;3.90;;;2.65;;
22939;SDS011;11636;52.086;5.090;2022-07-23T15:08:17;4.07;;;2.10;;
22939;SDS011;11636;52.086;5.090;2022-07-23T15:11:09;2.92;;;1.60;;
22939;SDS011;11636;52.086;5.090;2022-07-23T15:14:06;3.17;;;2.08;;
22939;SDS011;11636;52.086;5.090;2022-07-23T15:17:11;2.53;;;1.60;;
22939;SDS011;11636;52.086;5.090;2022-07-23T15:20:07;3.67;;;2.08;;
22939;SDS011;11636;52.086;5.090;2022-07-23T15:22:54;3.10;;;1.85;;
22939;SDS011;11636;52.086;5.090;2022-07-23T15:25:49;2.78;;;1.38;;
22939;SDS011;11636;52.086;5.090;2022-07-23T15:28:37;3.28;;;1.73;;
22939;SDS011;11636;52.086;5.090;2022-07-23T15:31:31;3.15;;;1.52;;
22939;SDS011;11636;52.086;5.090;2022-07-23T15:34:26;3.78;;;2.03;;
22939;SDS011;11636;52.086;5.090;2022-07-23T15:37:23;3.40;;;2.10;;
22939;SDS011;11636;52.086;5.090;2022-07-23T15:40:10;3.55;;;2.30;;
22939;SDS011;11636;52.086;5.090;2022-07-23T15:43:04;2.80;;;1.88;;
22939;SDS011;11636;52.086;5.090;2022-07-23T15:46:03;3.63;;;1.60;;
22939;SDS011;11636;52.086;5.090;2022-07-23T15:48:58;2.80;;;1.65;;
22939;SDS011;11636;52.086;5.090;2022-07-23T15:51:48;3.40;;;1.70;;
22939;SDS011;11636;52.086;5.090;2022-07-23T15:54:41;3.55;;;2.08;;
22939;SDS011;11636;52.086;5.090;2022-07-23T15:57:29;2.80;;;1.70;;
22939;SDS011;11636;52.086;5.090;2022-07-23T16:00:22;2.58;;;1.63;;
22939;SDS011;11636;52.086;5.090;2022-07-23T16:03:11;2.80;;;1.95;;
22939;SDS011;11636;52.086;5.090;2022-07-23T16:06:05;3.55;;;1.98;;
22939;SDS011;11636;52.086;5.090;2022-07-23T16:09:03;3.20;;;2.00;;
22939;SDS011;11636;52.086;5.090;2022-07-23T16:12:05;2.97;;;1.70;;
22939;SDS011;11636;52.086;5.090;2022-07-23T16:14:58;3.80;;;2.17;;
22939;SDS011;11636;52.086;5.090;2022-07-23T16:17:53;6.38;;;2.75;;
22939;SDS011;11636;52.086;5.090;2022-07-23T16:20:48;4.50;;;2.28;;
22939;SDS011;11636;52.086;5.090;2022-07-23T16:23:36;4.78;;;2.42;;
22939;SDS011;11636;52.086;5.090;2022-07-23T16:26:30;4.70;;;2.22;;
22939;SDS011;11636;52.086;5.090;2022-07-23T16:29:17;3.90;;;2.10;;
22939;SDS011;11636;52.086;5.090;2022-07-23T16:32:10;3.30;;;2.05;;
22939;SDS011;11636;52.086;5.090;2022-07-23T16:35:05;4.13;;;1.90;;
22939;SDS011;11636;52.086;5.090;2022-07-23T16:37:59;3.25;;;1.60;;
22939;SDS011;11636;52.086;5.090;2022-07-23T16:40:54;4.07;;;2.47;;
22939;SDS011;11636;52.086;5.090;2022-07-23T16:43:48;4.00;;;2.33;;
22939;SDS011;11636;52.086;5.090;2022-07-23T16:46:36;3.50;;;1.88;;
22939;SDS011;11636;52.086;5.090;2022-07-23T16:49:30;3.50;;;2.20;;
22939;SDS011;11636;52.086;5.090;2022-07-23T16:52:17;4.30;;;2.40;;
22939;SDS011;11636;52.086;5.090;2022-07-23T16:55:12;3.08;;;2.13;;
22939;SDS011;11636;52.086;5.090;2022-07-23T16:57:59;4.03;;;2.40;;
22939;SDS011;11636;52.086;5.090;2022-07-23T17:00:52;3.05;;;1.50;;
22939;SDS011;11636;52.086;5.090;2022-07-23T17:03:40;2.75;;;1.63;;
22939;SDS011;11636;52.086;5.090;2022-07-23T17:06:34;3.03;;;2.00;;
22939;SDS011;11636;52.086;5.090;2022-07-23T17:09:21;3.47;;;2.00;;
22939;SDS011;11636;52.086;5.090;2022-07-23T17:12:14;2.67;;;1.70;;
22939;SDS011;11636;52.086;5.090;2022-07-23T17:15:02;3.58;;;1.98;;
22939;SDS011;11636;52.086;5.090;2022-07-23T17:17:57;3.13;;;1.77;;
22939;SDS011;11636;52.086;5.090;2022-07-23T17:20:44;3.58;;;1.70;;
22939;SDS011;11636;52.086;5.090;2022-07-23T17:23:39;2.97;;;1.95;;
22939;SDS011;11636;52.086;5.090;2022-07-23T17:26:26;2.60;;;1.70;;
22939;SDS011;11636;52.086;5.090;2022-07-23T17:29:20;2.10;;;1.30;;
22939;SDS011;11636;52.086;5.090;2022-07-23T17:32:14;3.33;;;1.60;;
22939;SDS011;11636;52.086;5.090;2022-07-23T17:35:02;2.50;;;1.50;;
22939;SDS011;11636;52.086;5.090;2022-07-23T17:37:57;3.28;;;1.50;;
22939;SDS011;11636;52.086;5.090;2022-07-23T17:40:51;3.05;;;1.85;;
22939;SDS011;11636;52.086;5.090;2022-07-23T17:43:38;2.60;;;1.70;;
22939;SDS011;11636;52.086;5.090;2022-07-23T17:46:32;2.95;;;1.67;;
22939;SDS011;11636;52.086;5.090;2022-07-23T17:49:26;2.97;;;1.60;;
22939;SDS011;11636;52.086;5.090;2022-07-23T17:52:20;2.67;;;1.55;;
22939;SDS011;11636;52.086;5.090;2022-07-23T17:55:07;2.28;;;1.40;;